Aérodrome :
LOGIN :

S'inscrire | Disclaimer

   EN    FR    IT 

 










Légende :    VFR   VFR Marginal   IFR   IFR Intensif   IFR Très Intensif
Visi : 
Plafond : 
>= 8 km
>= 3000ft
5 à 8 km
1000 à 3000 ft
1500m à 5 km
500 à 1000 ft
800 à 1500m
200 à 500 ft
< 800m
< 200 ft
Symboles :   Orages  Brouillard  Fortes neiges  Fortes précipitations  Vent > 20 kt
SIGMETs :   Divers  Orages  Givrage  Turbulence  Onde Orograph.  Cendres Volcan.







- Altitude de l'aérodrome : 14 ft
- Code IATA : BRE


EDDW - Bremen Neuenland

DERNIER METAR :
  • 230650Z 17012KT CAVOK 10/04 Q0999 NOSIG

METARs EXPIRÉS :
  • 230620Z 17012KT CAVOK 10/04 Q0999 NOSIG
  • 230550Z 18012KT CAVOK 10/04 Q0999 NOSIG
  • 230520Z 18014KT CAVOK 11/04 Q0999 NOSIG
  • 230450Z 17011KT CAVOK 10/04 Q0999 NOSIG
  • 230420Z 17010KT CAVOK 09/03 Q0999 NOSIG

TAF TAF EDDW
Valide du 23 à 06h jusqu'au 24 à 06h UTC


230500Z 2306/2406 19012KT 9999 SCT035
BECMG 2306/2308 20015G25KT
TEMPO 2309/2314 21020G35KT
PROB30
TEMPO 2314/2316 RA BKN014
BECMG 2315/2317 23009KT
BECMG 2402/2404 17004KT
PROB30
TEMPO 2405/2406 RA BKN014
Pas de NOTAMs connus pour ce terrain.



MET'MAP, la Météo Aéronautique d'un coup d'oeil ! - Copyright ORBIFLY Décembre 2007 - Disclaimer

ORBIFLY MET'MAP TEAM :

Programmation & Développement : Alexandra Zaïnal
Conception & Développement : Baudouin d'Aumeries
Co-Programmation & Développement : Marc-Olivier Méhu
Soutien technique & logistique : Manuel Goepfert

Contact : metmap@orbifly.com




SOURCES & CREDITS :

   NOAA